OERK/RUH METAR and TAF weather

Enter ICAO airport designator
Station Type Date Time Source
OERK METAR 2022/12/10 01:00 UTC NOAA

OERK 100100Z 09005KT 3000 TSRA FEW030CB OVC040 11/10 Q1020 TEMPO 1000 TSRA


Station Type Date Time Source
OERK Decoded METAR 2022/12/10 01:00 UTC NOAA

King Khaled International Airport, Saudi Arabia (OERK) 24-56N 046-43E 612M
Dec 09, 2022 - 08:00 PM EST / 2022.12.10 0100 UTC
Wind: from the E (090 degrees) at 6 MPH (5 KT):0
Visibility: 1 mile(s):0
Sky conditions: overcast
Weather: rain with thunder; Cumulonimbus clouds observed
Temperature: 51 F (11 C)
Dew Point: 50 F (10 C)
Relative Humidity: 93%
Pressure (altimeter): 30.12 in. Hg (1020 hPa)
ob: OERK 100100Z 09005KT 3000 TSRA FEW030CB OVC040 11/10 Q1020 TEMPO 1000 TSRA
cycle: 1

Station Type Date Time Source
OERK TAF 2022/12/09 18:33 UTC NOAA

TAF OERK 091700Z 0918/1024 09010KT 7000 SCT045 BKN080
TEMPO 0918/1006 2000 BR FEW030CB
BECMG 1000/1002 01010KT
TEMPO 1003/1012 VRB25KT TSRA FEW030CB BKN040

Example: see airport list